Time;durP1;ratioP1;P1;durP2;ratioP2;P2;SDS_P1;SDS_P2;PMS_P1;PMS_P2;Temp;Humidity;BMP_temperature;BMP_pressure;BME280_temperature;BME280_humidity;BME280_pressure;Samples;Min_cycle;Max_cycle;Signal;HPM_P1;HPM_P2
2024/01/06 00:00:13;;;;;;;;;22.25;19.75;;;;;6.74;81.24;100141.53;4973354;27;45429;-80
2024/01/06 00:02:39;;;;;;;;;24.00;19.25;;;;;6.55;81.56;100115.13;4973448;28;46038;-78
2024/01/06 00:05:05;;;;;;;;;22.25;17.50;;;;;6.73;81.38;100147.72;4973845;28;45406;-79
2024/01/06 00:07:30;;;;;;;;;22.50;20.00;;;;;6.79;80.62;100128.97;4989740;27;45442;-78
2024/01/06 00:09:56;;;;;;;;;20.50;15.25;;;;;6.89;80.40;100140.78;4974105;28;45675;-79
2024/01/06 00:12:21;;;;;;;;;21.50;20.75;;;;;7.00;79.99;100149.06;4972912;28;46120;-78
2024/01/06 00:14:46;;;;;;;;;19.75;19.00;;;;;7.04;80.30;100149.78;4972845;28;45346;-79
2024/01/06 00:17:12;;;;;;;;;25.50;17.75;;;;;7.03;80.07;100143.66;4973085;28;45346;-78
2024/01/06 00:19:37;;;;;;;;;18.25;17.50;;;;;7.10;80.03;100145.03;4974527;28;45590;-79
2024/01/06 00:22:02;;;;;;;;;19.25;16.75;;;;;7.13;79.58;100145.81;4976142;28;45223;-77
2024/01/06 00:24:28;;;;;;;;;18.25;15.00;;;;;7.21;78.75;100163.03;4976078;28;45346;-79
2024/01/06 00:26:53;;;;;;;;;18.00;18.00;;;;;7.23;78.64;100149.72;4975990;28;54360;-81
2024/01/06 00:29:18;;;;;;;;;16.00;16.00;;;;;7.17;78.69;100152.69;4977817;28;45246;-79
2024/01/06 00:31:44;;;;;;;;;20.25;20.25;;;;;7.02;79.30;100141.91;4976543;27;45339;-81
2024/01/06 00:34:09;;;;;;;;;17.25;15.75;;;;;7.03;78.81;100148.94;4975799;28;45417;-79
2024/01/06 00:36:34;;;;;;;;;19.25;17.00;;;;;6.93;79.36;100136.22;4976239;28;45318;-79
2024/01/06 00:39:00;;;;;;;;;19.25;16.75;;;;;7.00;79.25;100150.84;4976234;28;45158;-79
2024/01/06 00:41:25;;;;;;;;;24.75;20.25;;;;;6.90;79.48;100141.63;4975636;28;46001;-79
2024/01/06 00:43:50;;;;;;;;;20.00;18.50;;;;;6.98;79.86;100158.84;4975610;28;45425;-79
2024/01/06 00:46:16;;;;;;;;;15.50;15.50;;;;;6.97;79.60;100153.66;4975856;28;45399;-79
2024/01/06 00:48:41;;;;;;;;;18.75;18.00;;;;;6.92;79.56;100155.66;4975981;28;45439;-79
2024/01/06 00:51:07;;;;;;;;;21.75;20.50;;;;;6.96;79.61;100147.50;4975880;28;45338;-79
2024/01/06 00:53:32;;;;;;;;;19.50;18.75;;;;;6.97;79.17;100143.94;4975920;28;45431;-78
2024/01/06 00:55:57;;;;;;;;;21.25;20.00;;;;;7.16;79.12;100169.47;4975729;28;45455;-79
2024/01/06 00:58:23;;;;;;;;;20.00;20.00;;;;;7.09;79.39;100153.91;4975794;28;45266;-78
2024/01/06 01:00:48;;;;;;;;;17.00;15.25;;;;;7.22;78.71;100175.31;4974263;28;46995;-77
2024/01/06 01:03:13;;;;;;;;;20.25;17.50;;;;;7.11;78.71;100161.75;4974864;28;60629;-79
2024/01/06 01:05:39;;;;;;;;;20.00;14.25;;;;;7.00;78.50;100146.41;4975021;28;59993;-77
2024/01/06 01:08:04;;;;;;;;;17.50;15.50;;;;;7.09;78.56;100169.78;4975910;27;45669;-78
2024/01/06 01:10:30;;;;;;;;;19.00;16.00;;;;;7.03;78.43;100177.13;4975411;28;45445;-78
2024/01/06 01:12:55;;;;;;;;;14.50;12.75;;;;;7.03;79.01;100180.66;4975465;28;45419;-78
2024/01/06 01:15:20;;;;;;;;;18.00;18.00;;;;;7.04;79.50;100186.81;4975237;28;45251;-78
2024/01/06 01:17:46;;;;;;;;;23.00;20.00;;;;;6.96;78.90;100173.09;4975635;28;45409;-78
2024/01/06 01:20:11;;;;;;;;;22.00;20.00;;;;;7.04;79.31;100187.66;4975066;28;53854;-78
2024/01/06 01:22:36;;;;;;;;;14.00;14.00;;;;;7.04;78.97;100195.59;4975673;28;45276;-79
2024/01/06 01:25:07;;;;;;;;;15.75;15.75;;;;;7.02;79.20;100184.19;4974234;28;50844;-78
2024/01/06 01:27:32;;;;;;;;;15.25;13.25;;;;;7.07;78.31;100187.50;4976677;28;45319;-78
2024/01/06 01:29:58;;;;;;;;;16.75;15.00;;;;;7.01;78.75;100190.44;4974537;28;46270;-79
2024/01/06 01:32:23;;;;;;;;;15.75;13.50;;;;;6.90;78.66;100179.53;4975345;28;45475;-79
2024/01/06 01:34:48;;;;;;;;;14.75;14.75;;;;;6.96;78.60;100197.72;4975937;28;48735;-78
2024/01/06 01:37:15;;;;;;;;;15.50;14.50;;;;;6.88;78.81;100188.44;4976863;28;45484;-78
2024/01/06 01:39:40;;;;;;;;;17.75;12.50;;;;;6.91;79.19;100197.09;4975022;28;45403;-79
2024/01/06 01:42:05;;;;;;;;;15.75;14.75;;;;;6.84;79.36;100203.59;4975334;28;45283;-79
2024/01/06 01:44:31;;;;;;;;;15.00;13.25;;;;;6.77;79.50;100205.69;4975225;28;45235;-79
2024/01/06 01:46:56;;;;;;;;;18.50;13.75;;;;;6.73;79.72;100205.88;4975290;28;45539;-80
2024/01/06 01:49:22;;;;;;;;;18.25;17.25;;;;;6.56;80.57;100196.09;4974882;28;45991;-78
2024/01/06 01:51:48;;;;;;;;;20.50;15.00;;;;;6.62;80.85;100213.44;4975008;28;45245;-78
2024/01/06 01:54:14;;;;;;;;;17.25;15.50;;;;;6.61;81.09;100214.38;4975100;28;45247;-78
2024/01/06 01:56:41;;;;;;;;;12.75;12.75;;;;;6.55;80.44;100202.31;4975429;28;45468;-79
2024/01/06 01:59:11;;;;;;;;;15.00;12.00;;;;;6.54;81.17;100213.81;4974005;28;46262;-79
2024/01/06 02:01:37;;;;;;;;;12.25;12.00;;;;;6.40;80.80;100198.56;4975070;28;45412;-78
2024/01/06 02:04:03;;;;;;;;;20.00;16.00;;;;;6.60;80.98;100218.78;4974864;28;45267;-78
2024/01/06 02:06:28;;;;;;;;;20.75;17.25;;;;;6.62;80.89;100226.66;4975338;28;45223;-78
2024/01/06 02:08:54;;;;;;;;;16.75;14.75;;;;;6.55;80.96;100215.50;4974703;28;46285;-77
2024/01/06 02:11:19;;;;;;;;;15.50;14.50;;;;;6.63;80.48;100226.56;4974694;28;45249;-78
2024/01/06 02:13:45;;;;;;;;;22.75;16.25;;;;;6.59;81.01;100209.16;4974714;28;45240;-79
2024/01/06 02:16:10;;;;;;;;;14.25;13.25;;;;;6.66;80.74;100230.88;4973804;28;45476;-78
2024/01/06 02:18:35;;;;;;;;;13.00;13.00;;;;;6.25;80.52;100164.94;4973350;28;47136;-78
2024/01/06 02:21:02;;;;;;;;;15.75;15.75;;;;;6.59;81.10;100232.06;4974543;27;45396;-78
2024/01/06 02:23:28;;;;;;;;;13.25;10.75;;;;;6.63;81.26;100231.00;4974784;28;45413;-78
2024/01/06 02:25:53;;;;;;;;;16.25;14.50;;;;;6.62;81.44;100242.50;4974738;28;45286;-78
2024/01/06 02:28:19;;;;;;;;;13.25;13.25;;;;;6.66;80.89;100249.38;4974325;28;46020;-79
2024/01/06 02:30:44;;;;;;;;;16.00;14.25;;;;;6.70;80.97;100240.38;4974463;28;45450;-80
2024/01/06 02:33:09;;;;;;;;;13.00;11.00;;;;;6.75;80.84;100246.31;4974408;28;56416;-78
2024/01/06 02:35:35;;;;;;;;;17.25;10.00;;;;;6.75;80.35;100233.94;4974876;28;45623;-78
2024/01/06 02:38:01;;;;;;;;;18.75;14.25;;;;;6.84;80.45;100242.38;4974304;28;45310;-78
2024/01/06 02:40:26;;;;;;;;;19.25;14.75;;;;;6.92;79.45;100250.84;4974288;28;45432;-79
2024/01/06 02:42:51;;;;;;;;;16.00;15.00;;;;;6.95;79.68;100255.97;4973121;28;51456;-78
2024/01/06 02:45:17;;;;;;;;;14.00;14.00;;;;;7.04;79.70;100244.97;4974600;28;45275;-80
2024/01/06 02:47:42;;;;;;;;;16.25;14.50;;;;;7.04;79.09;100245.81;4974556;28;47309;-78
2024/01/06 02:50:08;;;;;;;;;18.25;16.00;;;;;7.13;78.95;100254.25;4974288;28;45389;-79
2024/01/06 02:52:33;;;;;;;;;18.00;13.50;;;;;7.16;78.48;100259.38;4974383;28;45342;-79
2024/01/06 02:54:58;;;;;;;;;12.75;12.50;;;;;7.09;78.54;100249.09;4974197;28;45235;-78
2024/01/06 02:57:24;;;;;;;;;12.75;12.75;;;;;7.24;78.15;100262.53;4974220;27;46200;-78
2024/01/06 02:59:49;;;;;;;;;18.00;17.00;;;;;7.17;77.86;100264.63;4973772;28;54761;-77
2024/01/06 03:02:14;;;;;;;;;12.50;12.50;;;;;7.09;78.44;100262.31;4974459;28;45312;-78
2024/01/06 03:04:40;;;;;;;;;15.50;15.50;;;;;7.07;78.55;100277.41;4974848;28;45205;-79
2024/01/06 03:07:05;;;;;;;;;13.75;13.25;;;;;7.04;78.43;100276.69;4974078;28;45267;-77
2024/01/06 03:09:31;;;;;;;;;10.00;10.00;;;;;6.92;78.65;100267.56;4974123;28;45465;-77
2024/01/06 03:11:56;;;;;;;;;15.00;15.00;;;;;6.82;79.19;100270.69;4972909;28;45444;-79
2024/01/06 03:14:21;;;;;;;;;19.00;19.00;;;;;6.82;79.90;100271.53;4974130;28;45440;-78
2024/01/06 03:16:46;;;;;;;;;17.50;11.75;;;;;6.81;80.01;100275.09;4974001;28;45260;-79
2024/01/06 03:19:12;;;;;;;;;16.75;16.75;;;;;6.83;79.37;100275.88;4972266;28;65324;-79
2024/01/06 03:21:37;;;;;;;;;18.25;15.25;;;;;6.84;80.09;100274.09;4974134;28;45419;-80
2024/01/06 03:24:04;;;;;;;;;19.25;16.50;;;;;6.90;79.16;100277.34;4973824;28;45401;-78
2024/01/06 03:26:29;;;;;;;;;19.25;14.00;;;;;6.76;79.50;100259.44;4973590;28;45354;-79
2024/01/06 03:28:54;;;;;;;;;15.25;14.25;;;;;6.94;79.09;100285.97;4973542;28;45397;-77
2024/01/06 03:31:22;;;;;;;;;15.50;13.50;;;;;7.01;79.16;100287.41;4973721;28;47171;-78
2024/01/06 03:33:48;;;;;;;;;14.00;13.75;;;;;7.02;78.74;100294.41;4974190;28;45537;-78
2024/01/06 03:36:15;;;;;;;;;19.00;16.50;;;;;6.98;79.03;100292.84;4973854;28;46118;-78
2024/01/06 03:38:41;;;;;;;;;8.25;8.25;;;;;6.85;79.06;100276.66;4973855;28;45333;-79
2024/01/06 03:41:06;;;;;;;;;16.00;15.50;;;;;6.86;79.46;100288.97;4973748;28;45501;-79
2024/01/06 03:43:31;;;;;;;;;22.50;15.25;;;;;6.91;79.73;100300.19;4974295;28;45370;-79
2024/01/06 03:45:57;;;;;;;;;18.50;16.00;;;;;6.92;78.67;100304.56;4972828;28;72716;-79
2024/01/06 03:48:23;;;;;;;;;19.25;16.00;;;;;6.84;79.22;100289.97;4973630;28;45423;-79
2024/01/06 03:50:48;;;;;;;;;20.00;19.75;;;;;6.83;79.71;100296.19;4973663;28;45382;-78
2024/01/06 03:53:13;;;;;;;;;19.00;16.00;;;;;6.89;79.75;100294.09;4989883;27;45441;-79
2024/01/06 03:55:39;;;;;;;;;19.50;16.25;;;;;7.02;79.22;100295.25;4976298;28;46506;-80
2024/01/06 03:58:04;;;;;;;;;23.25;18.50;;;;;7.04;78.78;100308.44;4976319;28;45532;-79
2024/01/06 04:00:29;;;;;;;;;17.50;16.25;;;;;6.97;79.09;100304.34;4976566;28;45508;-80
2024/01/06 04:02:54;;;;;;;;;16.00;15.00;;;;;6.89;79.57;100309.97;4976462;28;45240;-79
2024/01/06 04:05:20;;;;;;;;;12.75;12.75;;;;;6.80;79.70;100305.97;4975852;28;57982;-79
2024/01/06 04:07:45;;;;;;;;;15.75;15.75;;;;;6.72;79.52;100297.50;4976612;28;45727;-80
2024/01/06 04:10:11;;;;;;;;;20.50;17.25;;;;;6.77;80.08;100311.41;4976384;28;45524;-79
2024/01/06 04:12:36;;;;;;;;;21.00;20.50;;;;;6.71;80.15;100308.16;4976485;28;45163;-78
2024/01/06 04:15:02;;;;;;;;;25.50;25.25;;;;;6.70;80.28;100298.50;4976059;28;45227;-78
2024/01/06 04:17:27;;;;;;;;;20.25;20.25;;;;;6.73;80.39;100315.09;4976460;28;45254;-78
2024/01/06 04:19:53;;;;;;;;;18.25;17.75;;;;;6.72;80.37;100312.50;4978451;28;45848;-78
2024/01/06 04:22:18;;;;;;;;;19.25;17.50;;;;;6.72;80.81;100317.78;4980306;28;45241;-79
2024/01/06 04:24:44;;;;;;;;;24.00;17.50;;;;;6.71;79.99;100301.09;4977119;28;45457;-80
2024/01/06 04:27:09;;;;;;;;;23.25;20.50;;;;;6.80;79.70;100311.25;4976182;27;45722;-79
2024/01/06 04:29:35;;;;;;;;;16.00;15.50;;;;;6.89;80.52;100319.69;4976203;28;45318;-77
2024/01/06 04:32:00;;;;;;;;;25.00;20.25;;;;;6.92;79.59;100331.00;4976256;28;45659;-79
2024/01/06 04:34:25;;;;;;;;;27.50;23.25;;;;;6.86;79.42;100320.69;4975342;28;58789;-79
2024/01/06 04:36:51;;;;;;;;;25.50;23.00;;;;;6.84;80.19;100332.25;4976040;28;45593;-79
2024/01/06 04:39:16;;;;;;;;;22.75;22.50;;;;;6.81;80.31;100330.63;4976294;28;45481;-79
2024/01/06 04:41:41;;;;;;;;;23.25;19.25;;;;;6.85;80.31;100324.25;4975828;28;45639;-78
2024/01/06 04:44:07;;;;;;;;;25.75;21.75;;;;;6.91;79.39;100324.00;4975709;28;45342;-78
2024/01/06 04:46:32;;;;;;;;;22.50;19.00;;;;;6.98;79.64;100330.69;4975837;28;45440;-78
2024/01/06 04:48:58;;;;;;;;;25.25;21.75;;;;;6.89;79.67;100339.03;4975920;28;45369;-79
2024/01/06 04:51:23;;;;;;;;;21.25;17.25;;;;;6.87;80.32;100342.69;4976199;28;45502;-78
2024/01/06 04:53:49;;;;;;;;;19.00;16.25;;;;;6.87;79.24;100327.69;4975763;28;45487;-79
2024/01/06 04:56:14;;;;;;;;;23.75;21.75;;;;;6.89;79.68;100331.09;4975755;28;45441;-79
2024/01/06 04:58:40;;;;;;;;;24.25;23.50;;;;;6.93;80.27;100345.94;4975776;28;45728;-79
2024/01/06 05:01:05;;;;;;;;;23.50;19.75;;;;;6.96;79.93;100347.56;4975979;28;45466;-79
2024/01/06 05:03:31;;;;;;;;;16.25;16.25;;;;;6.92;79.47;100330.13;4975771;27;45418;-80
2024/01/06 05:05:56;;;;;;;;;17.00;16.50;;;;;7.05;79.42;100344.53;4972742;28;62876;-80
2024/01/06 05:08:22;;;;;;;;;20.50;17.50;;;;;6.97;79.52;100344.84;4975852;28;45244;-78
2024/01/06 05:10:48;;;;;;;;;21.25;19.75;;;;;6.97;79.50;100357.22;4976229;28;45651;-79
2024/01/06 05:13:14;;;;;;;;;24.00;16.75;;;;;6.83;80.00;100341.97;4974169;28;46217;-78
2024/01/06 05:15:39;;;;;;;;;20.50;17.25;;;;;6.94;79.59;100358.22;4975159;28;45259;-79
2024/01/06 05:18:05;;;;;;;;;22.75;21.25;;;;;6.85;80.42;100344.53;4975573;28;45268;-78
2024/01/06 05:20:30;;;;;;;;;22.25;20.50;;;;;7.00;79.68;100359.72;4975773;28;45534;-78
2024/01/06 05:22:56;;;;;;;;;24.50;21.00;;;;;6.99;79.98;100363.28;4975374;28;45499;-79
2024/01/06 05:25:21;;;;;;;;;23.00;20.50;;;;;7.02;79.99;100364.00;4975583;28;45466;-78
2024/01/06 05:27:46;;;;;;;;;23.00;20.00;;;;;7.00;79.50;100363.22;4975314;27;45458;-78
2024/01/06 05:30:12;;;;;;;;;22.50;19.50;;;;;6.99;79.79;100372.06;4975466;28;45436;-79
2024/01/06 05:32:38;;;;;;;;;17.25;15.75;;;;;6.71;80.25;100342.50;4975173;28;46135;-80
2024/01/06 05:35:04;;;;;;;;;22.75;22.25;;;;;6.72;80.95;100370.66;4975124;28;45471;-78
2024/01/06 05:37:29;;;;;;;;;20.25;18.25;;;;;6.54;81.73;100361.75;4975179;28;45349;-78
2024/01/06 05:39:54;;;;;;;;;11.50;9.50;;;;;6.55;81.38;100371.41;4975428;28;45387;-79
2024/01/06 05:42:20;;;;;;;;;25.25;22.25;;;;;6.47;82.01;100370.84;4975388;28;45393;-82
2024/01/06 05:44:45;;;;;;;;;19.25;16.75;;;;;6.45;82.01;100376.19;4975021;28;45467;-80
2024/01/06 05:47:11;;;;;;;;;22.00;18.00;;;;;6.38;82.57;100374.75;4975295;28;45269;-78
2024/01/06 05:49:36;;;;;;;;;25.25;19.50;;;;;6.27;82.65;100358.50;4975388;27;45292;-78
2024/01/06 05:52:01;;;;;;;;;20.50;19.25;;;;;6.33;82.57;100376.72;4974845;28;46450;-78
2024/01/06 05:54:26;;;;;;;;;20.75;15.25;;;;;6.31;82.47;100375.94;4975124;28;45294;-77
2024/01/06 05:56:52;;;;;;;;;20.25;18.50;;;;;6.27;82.22;100376.13;4974856;28;58489;-80
2024/01/06 05:59:17;;;;;;;;;17.75;15.00;;;;;6.21;82.97;100385.16;4974940;28;45600;-79
2024/01/06 06:01:43;;;;;;;;;16.50;16.50;;;;;6.19;82.54;100387.00;4974855;28;45446;-78
2024/01/06 06:04:09;;;;;;;;;13.75;13.00;;;;;6.17;82.55;100394.13;4974773;28;45254;-78
2024/01/06 06:06:34;;;;;;;;;19.50;19.00;;;;;6.15;82.57;100407.41;4975053;28;45384;-79
2024/01/06 06:09:00;;;;;;;;;17.75;15.00;;;;;6.14;82.26;100399.53;4975000;27;45586;-81
2024/01/06 06:11:25;;;;;;;;;17.50;15.50;;;;;6.12;82.18;100396.06;4974798;28;46244;-79
2024/01/06 06:13:51;;;;;;;;;10.00;7.75;;;;;6.10;82.79;100411.13;4974573;28;57957;-79
2024/01/06 06:16:16;;;;;;;;;17.75;16.00;;;;;6.07;81.99;100420.03;4974396;28;49243;-79
2024/01/06 06:18:41;;;;;;;;;17.50;13.00;;;;;6.06;82.36;100423.59;4975046;28;45358;-78
2024/01/06 06:21:10;;;;;;;;;13.75;12.75;;;;;6.03;82.90;100433.44;4974656;28;45333;-77
2024/01/06 06:23:35;;;;;;;;;22.50;15.50;;;;;6.06;82.82;100430.66;4976070;28;44958;-79
2024/01/06 06:26:07;;;;;;;;;14.50;14.50;;;;;6.14;82.15;100436.50;4974863;28;45478;-78
2024/01/06 06:28:34;;;;;;;;;15.50;14.50;;;;;6.20;81.90;100446.81;4974758;28;45424;-79
2024/01/06 06:30:59;;;;;;;;;16.25;14.25;;;;;6.30;82.03;100447.31;4974498;28;45440;-76
2024/01/06 06:33:25;;;;;;;;;14.50;14.50;;;;;6.40;81.07;100446.88;4974820;28;45447;-79
2024/01/06 06:35:51;;;;;;;;;17.75;16.00;;;;;6.46;80.01;100448.38;4974598;28;45367;-78
2024/01/06 06:38:16;;;;;;;;;19.25;15.50;;;;;6.48;79.99;100443.91;4974827;28;45941;-79
2024/01/06 06:40:41;;;;;;;;;19.75;13.75;;;;;6.56;80.54;100456.81;4990865;27;45566;-80
2024/01/06 06:43:08;;;;;;;;;11.00;11.00;;;;;6.64;79.39;100465.25;4973067;28;45295;-78
2024/01/06 06:45:33;;;;;;;;;15.00;12.50;;;;;6.65;79.88;100452.00;4974536;28;45376;-79
2024/01/06 06:47:58;;;;;;;;;14.50;10.50;;;;;6.67;79.69;100462.50;4974433;28;45467;-79
2024/01/06 06:50:24;;;;;;;;;16.00;16.00;;;;;6.64;80.00;100465.25;4974470;28;45353;-78
2024/01/06 06:52:49;;;;;;;;;17.00;17.00;;;;;6.62;79.91;100467.09;4974601;28;45319;-78
2024/01/06 06:55:14;;;;;;;;;13.00;13.00;;;;;6.63;79.64;100468.81;4974393;28;45267;-79
2024/01/06 06:57:40;;;;;;;;;16.75;14.50;;;;;6.59;79.81;100464.59;4974640;28;45373;-80
2024/01/06 07:00:07;;;;;;;;;9.75;9.00;;;;;6.65;80.05;100477.56;4973995;28;45353;-77
2024/01/06 07:02:33;;;;;;;;;19.00;14.75;;;;;6.63;79.76;100471.47;4974176;28;45488;-78
2024/01/06 07:04:58;;;;;;;;;16.50;16.00;;;;;6.61;79.47;100465.38;4974292;28;45371;-80
2024/01/06 07:07:23;;;;;;;;;16.75;16.75;;;;;6.74;79.33;100487.72;4974640;28;45266;-79
2024/01/06 07:09:49;;;;;;;;;18.50;18.50;;;;;6.67;79.12;100475.72;4973928;28;46181;-78
2024/01/06 07:12:14;;;;;;;;;16.00;16.00;;;;;6.72;79.55;100493.09;4974451;28;51110;-80
2024/01/06 07:14:39;;;;;;;;;21.25;15.75;;;;;6.70;79.29;100492.28;4975176;28;45275;-80
2024/01/06 07:17:05;;;;;;;;;22.00;16.00;;;;;6.71;79.70;100507.22;4975008;28;56635;-78
2024/01/06 07:19:33;;;;;;;;;19.00;17.00;;;;;6.72;79.86;100502.78;4974337;28;46099;-79
2024/01/06 07:21:58;;;;;;;;;20.75;18.75;;;;;6.76;79.27;100504.38;4973036;27;45591;-78
2024/01/06 07:24:24;;;;;;;;;16.00;15.25;;;;;6.79;79.40;100517.50;4973426;28;63165;-80
2024/01/06 07:26:49;;;;;;;;;22.00;18.25;;;;;6.70;79.89;100516.06;4972820;28;45613;-79
2024/01/06 07:29:14;;;;;;;;;16.25;16.25;;;;;6.70;80.21;100520.50;4973108;28;45646;-79
2024/01/06 07:31:40;;;;;;;;;18.25;18.25;;;;;6.72;79.77;100508.09;4973839;28;45394;-79
2024/01/06 07:34:06;;;;;;;;;22.50;17.75;;;;;6.74;78.90;100503.59;4973664;27;45334;-79
2024/01/06 07:36:31;;;;;;;;;16.25;16.25;;;;;6.84;78.74;100527.88;4974065;28;45361;-81
2024/01/06 07:38:57;;;;;;;;;17.75;14.25;;;;;6.77;78.31;100522.84;4974025;28;45901;-80
2024/01/06 07:41:22;;;;;;;;;18.25;14.00;;;;;6.83;78.32;100524.34;4974000;28;45294;-79
2024/01/06 07:43:47;;;;;;;;;14.50;14.25;;;;;6.86;78.40;100541.88;4973777;28;45417;-80
2024/01/06 07:46:13;;;;;;;;;15.50;14.75;;;;;6.88;78.63;100540.88;4973139;28;53861;-79
2024/01/06 07:48:38;;;;;;;;;21.00;18.50;;;;;6.90;77.69;100543.44;4973277;28;45395;-79
2024/01/06 07:51:04;;;;;;;;;13.25;13.25;;;;;6.79;77.29;100530.72;4973331;28;45399;-79
2024/01/06 07:53:29;;;;;;;;;11.00;11.00;;;;;6.80;77.66;100532.44;4973785;28;45398;-79
2024/01/06 07:55:55;;;;;;;;;15.00;15.00;;;;;6.93;77.27;100549.50;4973839;28;45444;-78
2024/01/06 07:58:21;;;;;;;;;17.75;14.00;;;;;6.95;77.25;100542.34;4973281;28;45964;-80
2024/01/06 08:00:47;;;;;;;;;15.00;13.75;;;;;6.87;76.97;100543.59;4973378;28;45354;-79
2024/01/06 08:03:12;;;;;;;;;19.00;14.00;;;;;6.85;76.69;100556.00;4973399;28;45319;-80
2024/01/06 08:05:38;;;;;;;;;16.25;15.00;;;;;6.84;77.09;100560.44;4973406;28;45240;-80
2024/01/06 08:08:04;;;;;;;;;15.75;13.00;;;;;6.81;77.24;100555.28;4973068;28;45978;-81
2024/01/06 08:10:30;;;;;;;;;16.00;16.00;;;;;6.67;77.44;100539.13;4973632;28;45316;-78
2024/01/06 08:12:55;;;;;;;;;11.00;8.50;;;;;6.85;76.79;100578.03;4972495;28;60706;-78
2024/01/06 08:15:20;;;;;;;;;11.00;10.00;;;;;6.84;76.87;100578.94;4973594;28;45305;-80
2024/01/06 08:17:46;;;;;;;;;10.25;10.25;;;;;6.82;76.97;100578.16;4972944;28;46470;-81
2024/01/06 08:20:12;;;;;;;;;13.75;13.25;;;;;6.70;77.48;100568.94;4972931;28;45362;-78
2024/01/06 08:22:38;;;;;;;;;17.25;13.25;;;;;6.76;77.56;100584.53;4973079;28;45436;-79
2024/01/06 08:25:06;;;;;;;;;8.75;8.50;;;;;6.79;76.45;100591.50;4973188;28;45397;-79
2024/01/06 08:27:31;;;;;;;;;17.75;14.50;;;;;6.64;76.61;100566.56;4973196;28;46181;-81
2024/01/06 08:29:56;;;;;;;;;17.75;15.50;;;;;6.85;75.08;100588.59;4972860;28;45500;-81
2024/01/06 08:32:22;;;;;;;;;21.50;17.25;;;;;6.76;75.17;100583.66;4972916;28;45191;-78
2024/01/06 08:34:47;;;;;;;;;20.50;17.00;;;;;6.86;75.15;100592.94;4973016;28;45276;-81
2024/01/06 08:37:13;;;;;;;;;17.75;15.75;;;;;6.87;74.49;100585.88;4971836;28;65188;-81
2024/01/06 08:39:38;;;;;;;;;12.00;10.75;;;;;6.92;74.85;100595.38;4972694;28;45411;-79
2024/01/06 08:42:04;;;;;;;;;15.75;14.75;;;;;6.99;74.92;100588.88;4975911;28;45460;-79
2024/01/06 08:44:29;;;;;;;;;14.50;14.50;;;;;6.98;74.19;100596.88;4976425;28;45222;-79
2024/01/06 08:46:54;;;;;;;;;16.00;13.50;;;;;7.04;75.28;100602.78;4975110;28;65469;-79
2024/01/06 08:49:20;;;;;;;;;11.25;11.25;;;;;7.05;74.48;100607.16;4975609;27;45395;-79
2024/01/06 08:51:45;;;;;;;;;11.50;11.50;;;;;6.99;74.26;100602.09;4975830;28;45228;-80
2024/01/06 08:54:10;;;;;;;;;12.00;11.00;;;;;6.97;74.52;100596.03;4975904;28;45618;-78
2024/01/06 08:56:36;;;;;;;;;13.75;11.75;;;;;7.08;74.11;100606.16;4975600;28;45283;-80
2024/01/06 08:59:01;;;;;;;;;12.50;11.75;;;;;7.15;73.71;100617.34;4975902;28;45243;-79
2024/01/06 09:01:27;;;;;;;;;13.00;11.00;;;;;7.10;74.00;100615.75;4975632;28;47825;-80
2024/01/06 09:03:52;;;;;;;;;13.00;10.50;;;;;7.06;73.74;100624.75;4976425;28;45442;-78
2024/01/06 09:06:17;;;;;;;;;10.00;9.00;;;;;7.09;74.05;100629.91;4975582;28;45517;-79
2024/01/06 09:08:43;;;;;;;;;12.00;10.25;;;;;6.99;73.14;100612.69;4975464;27;45494;-80
2024/01/06 09:11:09;;;;;;;;;7.75;7.50;;;;;7.08;72.66;100617.59;4975802;28;45427;-79
2024/01/06 09:13:34;;;;;;;;;12.25;7.25;;;;;7.03;72.26;100608.13;4975830;28;45408;-81
2024/01/06 09:16:00;;;;;;;;;14.50;10.00;;;;;7.05;72.54;100622.16;4975405;28;46201;-80
2024/01/06 09:18:27;;;;;;;;;10.50;7.75;;;;;7.07;73.10;100623.81;4975508;28;45419;-79
2024/01/06 09:20:52;;;;;;;;;8.50;7.50;;;;;7.15;72.41;100630.56;4975577;28;45289;-80
2024/01/06 09:23:18;;;;;;;;;15.75;10.75;;;;;7.18;72.82;100638.38;4975527;28;45547;-78
2024/01/06 09:25:43;;;;;;;;;7.00;6.00;;;;;7.22;72.06;100639.97;4975381;28;45971;-81
2024/01/06 09:28:08;;;;;;;;;10.75;8.25;;;;;6.98;70.75;100605.69;4975171;28;45386;-80
2024/01/06 09:30:34;;;;;;;;;8.00;8.00;;;;;7.30;71.19;100649.31;4975689;28;45317;-77
2024/01/06 09:32:59;;;;;;;;;11.25;8.00;;;;;7.40;70.26;100649.78;4975531;28;45529;-80
2024/01/06 09:35:24;;;;;;;;;26.25;21.00;;;;;7.39;69.60;100638.34;4975154;28;47545;-80
2024/01/06 09:37:50;;;;;;;;;5.75;5.00;;;;;7.23;67.92;100610.81;4975270;28;45364;-80
2024/01/06 09:40:21;;;;;;;;;5.25;5.25;;;;;7.33;67.97;100632.47;4975587;28;45276;-80
2024/01/06 09:42:47;;;;;;;;;6.75;6.00;;;;;7.54;68.56;100658.00;4975843;28;45782;-81
2024/01/06 09:45:12;;;;;;;;;6.75;6.75;;;;;7.69;68.47;100657.38;4975345;27;46104;-81
2024/01/06 09:47:40;;;;;;;;;5.50;5.50;;;;;7.83;67.38;100658.56;4974907;28;45374;-79
2024/01/06 09:50:09;;;;;;;;;4.00;4.00;;;;;7.89;66.75;100655.63;4974259;28;45340;-80
2024/01/06 09:52:40;;;;;;;;;7.50;5.75;;;;;7.93;65.89;100659.84;4974938;28;45450;-78
2024/01/06 09:55:10;;;;;;;;;4.75;4.75;;;;;7.97;65.36;100672.03;4975318;28;45301;-79
2024/01/06 09:57:36;;;;;;;;;5.25;5.25;;;;;8.05;66.12;100663.75;4975475;28;45428;-78
2024/01/06 10:00:02;;;;;;;;;3.50;2.25;;;;;7.99;64.30;100654.28;4974875;28;45933;-79
2024/01/06 10:02:28;;;;;;;;;7.00;6.00;;;;;8.11;65.28;100664.34;4975415;28;45482;-80
2024/01/06 10:04:53;;;;;;;;;4.25;3.00;;;;;8.08;64.19;100667.13;4975180;28;45227;-82
2024/01/06 10:07:18;;;;;;;;;2.00;2.00;;;;;8.12;64.92;100670.50;4976915;28;45941;-79
2024/01/06 10:09:44;;;;;;;;;3.50;3.50;;;;;8.22;65.17;100675.31;4981822;27;45349;-80
2024/01/06 10:12:09;;;;;;;;;6.75;4.50;;;;;8.32;64.71;100678.41;4975623;28;58502;-80
2024/01/06 10:14:35;;;;;;;;;4.25;4.25;;;;;8.18;63.83;100660.47;4976485;28;45287;-79
2024/01/06 10:17:01;;;;;;;;;3.50;3.50;;;;;8.05;64.32;100675.19;4975073;28;45532;-81
2024/01/06 10:19:26;;;;;;;;;3.25;2.25;;;;;7.86;64.12;100669.00;4975292;28;45435;-80
2024/01/06 10:21:52;;;;;;;;;2.50;2.50;;;;;7.96;64.46;100676.47;4975244;28;45614;-78
2024/01/06 10:24:18;;;;;;;;;6.00;5.00;;;;;8.07;64.57;100683.94;4973510;28;46841;-79
2024/01/06 10:26:45;;;;;;;;;5.50;5.00;;;;;7.99;64.25;100671.03;4974868;28;45445;-82
2024/01/06 10:29:11;;;;;;;;;3.75;3.00;;;;;8.01;64.86;100673.63;4974730;28;45370;-79
2024/01/06 10:31:36;;;;;;;;;7.00;5.50;;;;;8.09;64.42;100666.22;4975187;28;45452;-82
2024/01/06 10:34:03;;;;;;;;;3.50;2.00;;;;;8.11;64.43;100671.44;4974801;28;45710;-81
2024/01/06 10:36:28;;;;;;;;;7.00;3.00;;;;;7.98;63.82;100660.53;4975449;27;45223;-80
2024/01/06 10:38:54;;;;;;;;;2.25;2.25;;;;;8.14;64.26;100692.47;4994274;28;45249;-80
2024/01/06 10:41:21;;;;;;;;;4.75;1.25;;;;;8.05;64.58;100677.84;4977302;28;45269;-80
2024/01/06 10:43:47;;;;;;;;;2.00;2.00;;;;;8.12;64.20;100676.66;4974468;28;45496;-82
2024/01/06 10:46:15;;;;;;;;;1.25;1.25;;;;;8.01;63.86;100667.47;4974652;28;45546;-79
2024/01/06 10:48:45;;;;;;;;;3.00;2.00;;;;;7.83;64.65;100670.00;4974797;28;45445;-78
2024/01/06 10:51:13;;;;;;;;;5.75;3.00;;;;;7.99;64.54;100675.47;4975158;27;45215;-80
2024/01/06 10:53:40;;;;;;;;;8.25;5.25;;;;;8.02;64.81;100685.94;4975810;28;46000;-80
2024/01/06 10:56:13;;;;;;;;;2.75;2.75;;;;;8.14;64.53;100685.38;4974427;28;45469;-80
2024/01/06 10:58:46;;;;;;;;;2.50;2.25;;;;;8.26;64.25;100684.84;4974737;28;45383;-81
2024/01/06 11:01:12;;;;;;;;;3.75;3.75;;;;;8.35;64.35;100694.22;4974991;28;45256;-79
2024/01/06 11:03:39;;;;;;;;;3.00;2.00;;;;;8.36;63.92;100692.41;4973954;28;45444;-80
2024/01/06 11:06:11;;;;;;;;;5.50;3.50;;;;;8.37;64.51;100692.34;4974460;28;45344;-80
2024/01/06 11:08:49;;;;;;;;;3.50;3.50;;;;;8.44;64.58;100672.56;4974227;28;45386;-81
2024/01/06 11:11:17;;;;;;;;;8.00;3.25;;;;;8.45;63.27;100671.63;4974847;28;45433;-79